createdAt,value
2023-03-16T00:00:51.712Z,6.30
2023-03-16T00:03:39.977Z,6.26
2023-03-16T00:06:28.654Z,6.19
2023-03-16T00:09:17.700Z,6.09
2023-03-16T00:12:05.431Z,6.03
2023-03-16T00:14:54.440Z,6.00
2023-03-16T00:17:42.067Z,5.99
2023-03-16T00:20:29.802Z,6.05
2023-03-16T00:23:17.476Z,5.86
2023-03-16T00:26:08.242Z,6.05
2023-03-16T00:28:55.869Z,6.14
2023-03-16T00:31:44.327Z,6.04
2023-03-16T00:34:34.970Z,6.00
2023-03-16T00:37:26.262Z,6.00
2023-03-16T00:40:14.198Z,5.99
2023-03-16T00:43:03.605Z,5.97
2023-03-16T00:45:52.619Z,6.00
2023-03-16T00:48:43.917Z,5.94
2023-03-16T00:51:34.070Z,5.88
2023-03-16T00:54:22.436Z,5.85
2023-03-16T00:57:12.414Z,5.83
2023-03-16T01:00:00.763Z,5.78
2023-03-16T01:02:48.873Z,5.78
2023-03-16T01:05:41.063Z,5.53
2023-03-16T01:08:28.632Z,5.74
2023-03-16T01:11:18.756Z,5.62
2023-03-16T01:14:06.390Z,5.54
2023-03-16T01:16:54.311Z,5.51
2023-03-16T01:19:43.899Z,5.36
2023-03-16T01:22:34.016Z,5.45
2023-03-16T01:25:24.340Z,5.11
2023-03-16T01:28:13.757Z,5.31
2023-03-16T01:31:07.272Z,5.29
2023-03-16T01:33:55.774Z,5.19
2023-03-16T01:36:51.296Z,5.13
2023-03-16T01:39:46.933Z,5.17
2023-03-16T01:42:46.518Z,5.17
2023-03-16T01:46:05.679Z,5.10
2023-03-16T01:49:20.530Z,5.13
2023-03-16T01:52:23.420Z,5.18
2023-03-16T01:55:14.304Z,5.05
2023-03-16T01:58:02.571Z,5.06
2023-03-16T02:00:50.295Z,4.96
2023-03-16T02:03:44.209Z,4.85
2023-03-16T02:06:39.813Z,4.58
2023-03-16T02:09:29.019Z,4.93
2023-03-16T02:12:20.473Z,4.83
2023-03-16T02:15:14.838Z,4.80
2023-03-16T02:18:05.971Z,4.80
2023-03-16T02:21:30.268Z,4.72
2023-03-16T02:24:18.012Z,4.72
2023-03-16T02:27:10.665Z,4.64
2023-03-16T02:30:11.990Z,4.68
2023-03-16T02:33:16.356Z,4.44
2023-03-16T02:36:05.533Z,4.49
2023-03-16T02:38:53.312Z,4.53
2023-03-16T02:41:41.964Z,4.49
2023-03-16T02:44:36.570Z,4.45
2023-03-16T02:47:41.762Z,4.48
2023-03-16T02:50:30.395Z,4.40
2023-03-16T02:53:18.196Z,4.44
2023-03-16T02:56:06.349Z,4.43
2023-03-16T02:58:57.983Z,4.32
2023-03-16T03:01:46.843Z,4.43
2023-03-16T03:04:36.899Z,4.47
2023-03-16T03:07:32.047Z,4.49
2023-03-16T03:10:24.315Z,4.47
2023-03-16T03:13:12.561Z,4.46
2023-03-16T03:16:02.046Z,4.25
2023-03-16T03:18:50.367Z,4.23
2023-03-16T03:21:38.676Z,4.47
2023-03-16T03:24:28.365Z,4.42
2023-03-16T03:27:15.979Z,4.33
2023-03-16T03:30:06.652Z,4.46
2023-03-16T03:32:55.027Z,4.36
2023-03-16T03:35:43.065Z,4.29
2023-03-16T03:38:30.860Z,4.23
2023-03-16T03:41:18.754Z,4.26
2023-03-16T03:44:09.884Z,4.37
2023-03-16T03:46:58.857Z,4.35
2023-03-16T03:49:47.701Z,4.35
2023-03-16T03:52:38.506Z,4.31
2023-03-16T03:55:26.354Z,4.06
2023-03-16T03:58:14.115Z,4.17
2023-03-16T04:01:04.156Z,4.16
2023-03-16T04:03:53.742Z,4.02
2023-03-16T04:06:41.959Z,4.25
2023-03-16T04:09:30.282Z,4.27
2023-03-16T04:12:18.041Z,4.15
2023-03-16T04:15:06.375Z,4.06
2023-03-16T04:18:02.166Z,4.17
2023-03-16T04:20:49.964Z,4.14
2023-03-16T04:23:42.725Z,4.03
2023-03-16T04:26:31.025Z,3.94
2023-03-16T04:29:18.810Z,4.10
2023-03-16T04:32:07.938Z,4.09
2023-03-16T04:34:56.786Z,3.95
2023-03-16T04:37:54.074Z,4.00
2023-03-16T04:40:49.058Z,4.03
2023-03-16T04:43:40.368Z,3.97
2023-03-16T04:46:36.274Z,4.04
2023-03-16T04:49:28.144Z,3.93
2023-03-16T04:52:15.904Z,4.07
2023-03-16T04:55:07.397Z,3.99
2023-03-16T04:57:56.186Z,3.93
2023-03-16T05:00:45.785Z,3.82
2023-03-16T05:03:45.136Z,3.90
2023-03-16T05:06:33.066Z,3.73
2023-03-16T05:09:22.318Z,3.85
2023-03-16T05:12:10.990Z,3.82
2023-03-16T05:14:59.458Z,3.85
2023-03-16T05:17:58.825Z,3.79
2023-03-16T05:20:51.793Z,3.70
2023-03-16T05:23:39.746Z,3.74
2023-03-16T05:26:27.711Z,3.81
2023-03-16T05:29:16.972Z,3.79
2023-03-16T05:32:06.756Z,3.90
2023-03-16T05:34:54.570Z,3.75
2023-03-16T05:37:43.201Z,3.76
2023-03-16T05:40:35.135Z,3.81
2023-03-16T05:43:32.477Z,3.82
2023-03-16T05:46:21.004Z,3.91
2023-03-16T05:49:13.129Z,3.92
2023-03-16T05:52:01.003Z,3.82
2023-03-16T05:54:50.505Z,3.58
2023-03-16T05:57:38.484Z,3.70
2023-03-16T06:00:28.008Z,3.88
2023-03-16T06:03:27.039Z,3.70
2023-03-16T06:06:17.230Z,3.82
2023-03-16T06:09:15.289Z,3.77
2023-03-16T06:12:04.284Z,3.54
2023-03-16T06:14:53.405Z,3.79
2023-03-16T06:17:42.180Z,3.83
2023-03-16T06:20:32.403Z,3.80
2023-03-16T06:23:21.633Z,3.75
2023-03-16T06:26:13.582Z,3.84
2023-03-16T06:29:04.065Z,3.63
2023-03-16T06:31:54.997Z,3.90
2023-03-16T06:34:44.330Z,3.78
2023-03-16T06:37:34.691Z,3.74
2023-03-16T06:40:29.666Z,3.89
2023-03-16T06:43:17.869Z,4.09
2023-03-16T06:46:06.073Z,3.92
2023-03-16T06:48:56.945Z,4.11
2023-03-16T06:51:44.670Z,4.13
2023-03-16T06:54:37.700Z,4.14
2023-03-16T06:57:26.270Z,4.06
2023-03-16T07:00:15.844Z,4.24
2023-03-16T07:03:04.624Z,4.38
2023-03-16T07:09:01.616Z,4.37
2023-03-16T07:11:52.988Z,4.26
2023-03-16T07:14:42.392Z,4.39
2023-03-16T07:17:32.758Z,4.48
2023-03-16T07:20:23.879Z,4.39
2023-03-16T07:23:12.749Z,4.21
2023-03-16T07:26:02.195Z,4.35
2023-03-16T07:28:50.142Z,4.26
2023-03-16T07:31:38.031Z,3.97
2023-03-16T07:34:31.343Z,4.09
2023-03-16T07:37:25.020Z,4.15
2023-03-16T07:40:17.235Z,4.02
2023-03-16T07:43:04.955Z,3.93
2023-03-16T07:46:00.198Z,3.98
2023-03-16T07:48:48.047Z,3.96
2023-03-16T07:51:35.885Z,4.08
2023-03-16T07:54:24.546Z,4.15
2023-03-16T07:57:12.540Z,4.26
2023-03-16T08:00:05.515Z,4.22
2023-03-16T08:03:00.675Z,4.13
2023-03-16T08:05:50.144Z,4.17
2023-03-16T08:08:38.765Z,4.26
2023-03-16T08:11:27.072Z,4.23
2023-03-16T08:14:21.975Z,4.31
2023-03-16T08:17:22.511Z,4.20
2023-03-16T08:20:14.838Z,4.21
2023-03-16T08:23:03.679Z,4.02
2023-03-16T08:25:58.459Z,4.36
2023-03-16T08:28:48.421Z,4.39
2023-03-16T08:31:36.460Z,4.35
2023-03-16T08:34:32.037Z,4.52
2023-03-16T08:37:20.195Z,4.33
2023-03-16T08:40:17.052Z,4.40
2023-03-16T08:43:05.816Z,4.27
2023-03-16T08:45:56.538Z,4.57
2023-03-16T08:48:48.839Z,4.46
2023-03-16T08:51:37.318Z,4.41
2023-03-16T08:54:25.075Z,4.28
2023-03-16T08:57:12.765Z,4.32
2023-03-16T09:00:01.603Z,4.26
2023-03-16T09:02:49.234Z,4.28
2023-03-16T09:05:37.091Z,4.43
2023-03-16T09:08:24.787Z,4.35
2023-03-16T09:11:15.291Z,4.34
2023-03-16T09:14:02.985Z,4.32
2023-03-16T09:16:50.763Z,4.24
2023-03-16T09:19:50.463Z,4.25
2023-03-16T09:22:39.316Z,4.10
2023-03-16T09:25:26.918Z,4.28
2023-03-16T09:28:16.147Z,4.40
2023-03-16T09:31:03.865Z,4.26
2023-03-16T09:33:51.594Z,4.27
2023-03-16T09:36:39.602Z,4.27
2023-03-16T09:39:27.727Z,4.42
2023-03-16T09:42:44.040Z,4.56
2023-03-16T09:45:57.924Z,4.51
2023-03-16T09:48:47.603Z,4.52
2023-03-16T09:51:38.917Z,4.44
2023-03-16T09:54:56.841Z,4.79
2023-03-16T09:57:46.770Z,4.79
2023-03-16T10:00:46.777Z,4.58
2023-03-16T10:04:05.016Z,4.72
2023-03-16T10:07:21.316Z,5.05
2023-03-16T10:10:11.847Z,4.78
2023-03-16T10:13:01.702Z,4.80
2023-03-16T10:15:51.761Z,5.10
2023-03-16T10:18:45.160Z,5.26
2023-03-16T10:21:40.329Z,5.20
2023-03-16T10:24:37.142Z,5.27
2023-03-16T10:27:33.784Z,5.40
2023-03-16T10:30:40.629Z,5.06
2023-03-16T10:33:34.901Z,4.97
2023-03-16T10:36:33.769Z,5.04
2023-03-16T10:39:21.494Z,5.22
2023-03-16T10:42:17.947Z,5.36
2023-03-16T10:45:06.578Z,5.31
2023-03-16T10:47:54.596Z,5.27
2023-03-16T10:50:44.830Z,5.33
2023-03-16T10:53:38.616Z,5.38
2023-03-16T10:56:26.606Z,5.04
2023-03-16T10:59:35.310Z,5.17
2023-03-16T11:02:30.975Z,5.25
2023-03-16T11:05:23.675Z,5.17
2023-03-16T11:08:24.151Z,5.22
2023-03-16T11:11:33.019Z,5.23
2023-03-16T11:14:37.531Z,5.38
2023-03-16T11:17:40.128Z,5.54
2023-03-16T11:20:32.943Z,5.61
2023-03-16T11:23:29.330Z,5.58
2023-03-16T11:26:28.160Z,5.61
2023-03-16T11:29:26.912Z,5.66
2023-03-16T11:32:22.783Z,5.70
2023-03-16T11:35:17.884Z,5.67
2023-03-16T11:38:19.331Z,5.81
2023-03-16T11:41:24.036Z,5.81
2023-03-16T11:44:19.650Z,5.80
2023-03-16T11:47:36.270Z,5.95
2023-03-16T11:50:52.015Z,5.91
2023-03-16T11:54:06.771Z,5.72
2023-03-16T11:57:10.387Z,5.71
2023-03-16T12:00:17.085Z,5.40
2023-03-16T12:03:29.154Z,5.64
2023-03-16T12:06:40.973Z,5.88
2023-03-16T12:09:51.717Z,5.90
2023-03-16T12:12:53.652Z,5.83
2023-03-16T12:16:09.358Z,5.78
2023-03-16T12:19:07.270Z,5.65
2023-03-16T12:22:15.535Z,5.91
2023-03-16T12:25:13.398Z,6.02
2023-03-16T12:28:05.692Z,6.08
2023-03-16T12:30:53.166Z,5.99
2023-03-16T12:34:19.546Z,5.89
2023-03-16T12:37:19.691Z,5.98
2023-03-16T12:40:27.365Z,6.03
2023-03-16T12:43:46.653Z,6.00
2023-03-16T12:47:20.132Z,5.92
2023-03-16T12:50:11.630Z,5.92
2023-03-16T12:52:59.971Z,6.06
2023-03-16T12:55:53.204Z,6.03
2023-03-16T12:58:47.423Z,6.15
2023-03-16T13:01:45.094Z,6.09
2023-03-16T13:05:10.300Z,6.07
2023-03-16T13:08:18.789Z,5.98
2023-03-16T13:11:12.392Z,6.14
2023-03-16T13:13:59.979Z,6.17
2023-03-16T13:16:50.804Z,6.04
2023-03-16T13:19:40.150Z,5.95
2023-03-16T13:22:46.303Z,5.95
2023-03-16T13:25:43.850Z,5.85
2023-03-16T13:28:35.621Z,5.34
2023-03-16T13:31:27.837Z,5.91
2023-03-16T13:34:21.495Z,6.09
2023-03-16T13:37:15.415Z,6.02
2023-03-16T13:40:06.178Z,6.03
2023-03-16T13:42:55.587Z,6.01
2023-03-16T13:45:44.112Z,5.90
2023-03-16T13:48:37.523Z,5.96
2023-03-16T13:51:25.316Z,5.83
2023-03-16T13:54:30.045Z,5.91
2023-03-16T13:57:21.677Z,5.84
2023-03-16T14:00:28.316Z,5.76
2023-03-16T14:03:18.975Z,5.61
2023-03-16T14:06:19.002Z,5.83
2023-03-16T14:09:15.737Z,5.90
2023-03-16T14:12:05.793Z,5.75
2023-03-16T14:14:56.123Z,5.76
2023-03-16T14:17:44.051Z,5.89
2023-03-16T14:20:34.951Z,5.88
2023-03-16T14:23:40.962Z,5.91
2023-03-16T14:26:43.654Z,5.94
2023-03-16T14:29:31.682Z,5.64
2023-03-16T14:35:44.186Z,5.49
2023-03-16T14:38:36.346Z,5.36
2023-03-16T14:41:30.262Z,5.27
2023-03-16T14:44:24.437Z,5.21
2023-03-16T14:47:24.432Z,5.15
2023-03-16T14:50:22.347Z,4.98
2023-03-16T14:53:12.158Z,4.98
2023-03-16T14:55:59.982Z,5.01
2023-03-16T14:58:47.643Z,4.92
2023-03-16T15:01:36.260Z,4.91
2023-03-16T15:04:35.043Z,4.94
2023-03-16T15:07:29.902Z,4.85
2023-03-16T15:10:24.808Z,4.77
2023-03-16T15:13:24.660Z,4.91
2023-03-16T15:16:14.424Z,4.79
2023-03-16T15:19:02.442Z,4.84
2023-03-16T15:21:53.198Z,4.77
2023-03-16T15:24:41.054Z,4.72
2023-03-16T15:27:34.829Z,4.79
2023-03-16T15:30:29.038Z,4.73
2023-03-16T15:33:20.160Z,4.68
2023-03-16T15:36:15.940Z,4.77
2023-03-16T15:39:04.602Z,4.70
2023-03-16T15:41:52.889Z,4.63
2023-03-16T15:44:40.492Z,4.58
2023-03-16T15:47:28.183Z,4.79
2023-03-16T15:50:22.135Z,4.62
2023-03-16T15:53:36.123Z,4.76
2023-03-16T15:56:30.146Z,4.76
2023-03-16T15:59:18.176Z,4.68
2023-03-16T16:02:33.109Z,4.67
2023-03-16T16:05:23.455Z,4.60
2023-03-16T16:08:11.984Z,4.44
2023-03-16T16:11:00.150Z,4.54
2023-03-16T16:13:48.613Z,4.52
2023-03-16T16:16:37.524Z,4.08
2023-03-16T16:19:27.333Z,4.47
2023-03-16T16:22:15.193Z,4.49
2023-03-16T16:25:02.900Z,4.22
2023-03-16T16:27:54.096Z,4.36
2023-03-16T16:30:42.168Z,4.32
2023-03-16T16:33:33.461Z,4.17
2023-03-16T16:36:23.606Z,4.11
2023-03-16T16:39:12.206Z,3.96
2023-03-16T16:41:59.950Z,4.15
2023-03-16T16:44:47.742Z,4.03
2023-03-16T16:47:35.336Z,3.94
2023-03-16T16:50:26.558Z,3.98
2023-03-16T16:53:21.064Z,3.86
2023-03-16T16:56:14.437Z,3.78
2023-03-16T16:59:18.578Z,3.88
2023-03-16T17:02:33.423Z,3.81
2023-03-16T17:05:27.829Z,3.84
2023-03-16T17:08:16.273Z,3.85
2023-03-16T17:11:05.175Z,3.61
2023-03-16T17:13:58.547Z,3.88
2023-03-16T17:16:52.029Z,3.77
2023-03-16T17:19:40.437Z,3.88
2023-03-16T17:22:28.709Z,3.84
2023-03-16T17:25:16.906Z,4.02
2023-03-16T17:28:04.855Z,3.82
2023-03-16T17:30:53.194Z,3.90
2023-03-16T17:33:41.125Z,3.75
2023-03-16T17:36:29.521Z,3.84
2023-03-16T17:39:35.372Z,3.83
2023-03-16T17:42:26.736Z,3.86
2023-03-16T17:45:33.202Z,3.82
2023-03-16T17:48:23.108Z,3.89
2023-03-16T17:51:16.735Z,3.90
2023-03-16T17:54:05.460Z,3.82
2023-03-16T17:56:54.265Z,3.81
2023-03-16T17:59:42.547Z,3.85
2023-03-16T18:02:43.456Z,3.74
2023-03-16T18:05:34.143Z,3.65
2023-03-16T18:08:27.391Z,3.71
2023-03-16T18:11:22.100Z,3.37
2023-03-16T18:14:27.980Z,3.67
2023-03-16T18:17:29.290Z,3.74
2023-03-16T18:20:36.850Z,3.83
2023-03-16T18:23:33.889Z,3.83
2023-03-16T18:26:22.370Z,3.84
2023-03-16T18:29:12.163Z,3.74
2023-03-16T18:32:01.359Z,3.66
2023-03-16T18:34:50.012Z,3.63
2023-03-16T18:37:37.913Z,3.58
2023-03-16T18:40:26.915Z,3.56
2023-03-16T18:43:18.342Z,3.58
2023-03-16T18:46:20.991Z,3.55
2023-03-16T18:49:38.140Z,3.41
2023-03-16T18:52:29.410Z,3.41
2023-03-16T18:55:21.447Z,3.45
2023-03-16T18:58:17.814Z,3.23
2023-03-16T19:01:06.617Z,3.42
2023-03-16T19:03:56.567Z,3.47
2023-03-16T19:06:44.861Z,3.47
2023-03-16T19:09:32.910Z,3.32
2023-03-16T19:12:21.502Z,3.32
2023-03-16T19:15:39.599Z,3.36
2023-03-16T19:18:27.338Z,3.19
2023-03-16T19:21:25.495Z,3.19
2023-03-16T19:24:24.893Z,2.83
2023-03-16T19:27:25.824Z,3.08
2023-03-16T19:30:44.731Z,3.36
2023-03-16T19:33:35.129Z,3.35
2023-03-16T19:36:30.708Z,3.41
2023-03-16T19:39:18.510Z,3.35
2023-03-16T19:42:06.344Z,3.25
2023-03-16T19:44:54.458Z,3.03
2023-03-16T19:47:42.371Z,3.28
2023-03-16T19:50:30.700Z,3.23
2023-03-16T19:53:21.627Z,3.09
2023-03-16T19:56:20.347Z,3.10
2023-03-16T19:59:10.376Z,3.04
2023-03-16T20:01:58.213Z,2.95
2023-03-16T20:04:45.850Z,2.99
2023-03-16T20:07:38.261Z,2.96
2023-03-16T20:10:28.730Z,2.97
2023-03-16T20:13:16.916Z,2.86
2023-03-16T20:16:04.766Z,3.04
2023-03-16T20:18:57.843Z,2.98
2023-03-16T20:21:45.651Z,2.79
2023-03-16T20:24:33.470Z,2.80
2023-03-16T20:27:23.332Z,2.89
2023-03-16T20:30:20.162Z,2.76
2023-03-16T20:33:16.593Z,2.60
2023-03-16T20:36:04.734Z,2.72
2023-03-16T20:38:52.352Z,2.79
2023-03-16T20:41:40.289Z,2.89
2023-03-16T20:44:30.478Z,2.95
2023-03-16T20:47:21.206Z,3.00
2023-03-16T20:50:24.555Z,2.97
2023-03-16T20:53:12.590Z,2.88
2023-03-16T20:56:00.263Z,2.97
2023-03-16T20:58:50.094Z,2.90
2023-03-16T21:01:44.198Z,3.08
2023-03-16T21:04:32.732Z,2.94
2023-03-16T21:07:20.584Z,2.81
2023-03-16T21:10:09.223Z,2.86
2023-03-16T21:12:58.026Z,2.99
2023-03-16T21:15:46.165Z,2.92
2023-03-16T21:18:33.796Z,2.78
2023-03-16T21:21:21.755Z,2.72
2023-03-16T21:24:09.782Z,2.95
2023-03-16T21:26:57.729Z,3.06
2023-03-16T21:29:45.447Z,3.14
2023-03-16T21:32:36.669Z,3.18
2023-03-16T21:35:39.104Z,2.95
2023-03-16T21:38:29.654Z,3.01
2023-03-16T21:41:17.933Z,3.06
2023-03-16T21:44:05.913Z,3.07
2023-03-16T21:46:54.488Z,3.06
2023-03-16T21:49:42.519Z,2.38
2023-03-16T21:52:31.217Z,3.02
2023-03-16T21:55:26.096Z,3.03
2023-03-16T21:58:13.784Z,2.86
2023-03-16T22:01:01.719Z,2.91
2023-03-16T22:03:53.406Z,3.06
2023-03-16T22:06:42.842Z,3.01
2023-03-16T22:09:33.104Z,2.98
2023-03-16T22:12:21.316Z,3.06
2023-03-16T22:15:09.533Z,3.06
2023-03-16T22:17:57.586Z,3.04
2023-03-16T22:20:45.603Z,2.86
2023-03-16T22:23:37.877Z,3.01
2023-03-16T22:26:25.784Z,2.94
2023-03-16T22:29:28.672Z,2.99
2023-03-16T22:32:19.764Z,3.01
2023-03-16T22:35:21.254Z,2.92
2023-03-16T22:38:13.432Z,2.95
2023-03-16T22:41:01.035Z,3.02
2023-03-16T22:43:49.023Z,3.08
2023-03-16T22:46:36.886Z,3.02
2023-03-16T22:49:28.474Z,2.89
2023-03-16T22:52:17.451Z,2.77
2023-03-16T22:55:07.226Z,2.94
2023-03-16T22:58:24.081Z,2.95
2023-03-16T23:01:19.063Z,2.95
2023-03-16T23:04:21.509Z,3.05
2023-03-16T23:07:11.586Z,2.98
2023-03-16T23:09:59.270Z,3.04
2023-03-16T23:12:47.157Z,3.01
2023-03-16T23:15:35.357Z,3.11
2023-03-16T23:18:26.554Z,3.08
2023-03-16T23:21:30.433Z,3.01
2023-03-16T23:27:37.841Z,3.11
2023-03-16T23:30:26.076Z,2.96
2023-03-16T23:33:17.823Z,3.12
2023-03-16T23:36:13.642Z,3.10
2023-03-16T23:39:01.369Z,2.99
2023-03-16T23:41:50.510Z,3.07
2023-03-16T23:44:38.269Z,3.14
2023-03-16T23:47:25.956Z,3.12
2023-03-16T23:50:17.158Z,3.10
2023-03-16T23:53:12.558Z,3.08
2023-03-16T23:56:01.192Z,3.15
2023-03-16T23:58:49.464Z,3.08
